createdAt,value
2019-02-23T00:01:52.830Z,9.60
2019-02-23T00:04:22.357Z,9.60
2019-02-23T00:06:52.905Z,9.60
2019-02-23T00:09:22.460Z,9.50
2019-02-23T00:11:51.886Z,9.50
2019-02-23T00:14:21.816Z,9.50
2019-02-23T00:16:51.389Z,9.40
2019-02-23T00:19:24.893Z,9.40
2019-02-23T00:21:51.976Z,9.30
2019-02-23T00:24:21.502Z,9.30
2019-02-23T00:26:51.025Z,9.30
2019-02-23T00:29:20.584Z,9.30
2019-02-23T00:31:50.358Z,9.30
2019-02-23T00:34:20.072Z,9.30
2019-02-23T00:36:49.652Z,9.30
2019-02-23T00:39:19.288Z,9.30
2019-02-23T00:41:48.725Z,9.30
2019-02-23T00:44:18.299Z,9.30
2019-02-23T00:46:47.686Z,9.20
2019-02-23T00:49:17.105Z,9.20
2019-02-23T00:51:46.612Z,9.20
2019-02-23T00:54:16.098Z,9.20
2019-02-23T00:56:45.550Z,9.20
2019-02-23T00:59:14.992Z,9.20
2019-02-23T01:01:44.404Z,9.20
2019-02-23T01:04:13.978Z,9.20
2019-02-23T01:06:43.486Z,9.20
2019-02-23T01:09:12.934Z,9.20
2019-02-23T01:11:42.418Z,9.20
2019-02-23T01:14:12.103Z,9.20
2019-02-23T01:16:41.556Z,9.20
2019-02-23T01:19:11.110Z,9.20
2019-02-23T01:21:40.610Z,9.20
2019-02-23T01:24:10.167Z,9.20
2019-02-23T01:26:39.742Z,9.10
2019-02-23T01:29:09.346Z,9.10
2019-02-23T01:31:38.858Z,9.10
2019-02-23T01:34:08.364Z,9.10
2019-02-23T01:36:37.890Z,9.10
2019-02-23T01:39:07.849Z,9.00
2019-02-23T01:41:37.281Z,9.00
2019-02-23T01:44:06.812Z,8.90
2019-02-23T01:46:36.296Z,8.90
2019-02-23T01:49:05.884Z,8.80
2019-02-23T01:51:35.342Z,8.80
2019-02-23T01:54:04.855Z,8.80
2019-02-23T01:56:34.338Z,8.70
2019-02-23T01:59:03.766Z,8.70
2019-02-23T02:01:33.286Z,8.70
2019-02-23T02:04:02.727Z,8.60
2019-02-23T02:06:33.622Z,8.60
2019-02-23T02:09:03.370Z,8.60
2019-02-23T02:11:32.905Z,8.50
2019-02-23T02:14:02.402Z,8.50
2019-02-23T02:16:32.199Z,8.50
2019-02-23T02:19:01.601Z,8.40
2019-02-23T02:21:31.096Z,8.40
2019-02-23T02:24:00.671Z,8.30
2019-02-23T02:26:30.081Z,8.30
2019-02-23T02:28:59.557Z,8.30
2019-02-23T02:31:29.086Z,8.30
2019-02-23T02:34:12.604Z,8.20
2019-02-23T02:36:41.968Z,8.20
2019-02-23T02:39:12.599Z,8.20
2019-02-23T02:41:42.205Z,8.10
2019-02-23T02:44:11.659Z,8.10
2019-02-23T02:46:41.162Z,8.10
2019-02-23T02:49:10.627Z,8.00
2019-02-23T02:51:40.162Z,8.00
2019-02-23T02:54:09.626Z,8.00
2019-02-23T02:56:39.148Z,7.90
2019-02-23T02:59:08.628Z,8.00
2019-02-23T03:01:38.131Z,7.90
2019-02-23T03:04:07.617Z,7.90
2019-02-23T03:06:37.101Z,7.90
2019-02-23T03:09:08.784Z,7.90
2019-02-23T03:11:40.151Z,7.90
2019-02-23T03:14:09.670Z,7.80
2019-02-23T03:16:39.174Z,7.90
2019-02-23T03:19:08.663Z,7.90
2019-02-23T03:21:38.198Z,7.80
2019-02-23T03:24:07.769Z,7.80
2019-02-23T03:26:37.212Z,7.80
2019-02-23T03:29:06.630Z,7.70
2019-02-23T03:31:36.133Z,7.70
2019-02-23T03:34:05.599Z,7.70
2019-02-23T03:36:35.090Z,7.60
2019-02-23T03:39:05.481Z,7.50
2019-02-23T03:41:36.925Z,7.50
2019-02-23T03:44:06.389Z,7.40
2019-02-23T03:46:35.975Z,7.40
2019-02-23T03:49:05.455Z,7.40
2019-02-23T03:51:34.913Z,7.30
2019-02-23T03:54:04.488Z,7.30
2019-02-23T03:56:34.331Z,7.30
2019-02-23T03:59:03.864Z,7.30
2019-02-23T04:01:33.329Z,7.20
2019-02-23T04:04:02.889Z,7.20
2019-02-23T04:06:32.441Z,7.20
2019-02-23T04:09:02.889Z,7.10
2019-02-23T04:11:33.798Z,7.10
2019-02-23T04:14:03.316Z,7.10
2019-02-23T04:16:32.804Z,7.10
2019-02-23T04:19:02.408Z,7.10
2019-02-23T04:21:31.870Z,7.10
2019-02-23T04:24:01.498Z,7.00
2019-02-23T04:26:31.031Z,7.00
2019-02-23T04:29:00.505Z,7.00
2019-02-23T04:31:29.891Z,6.90
2019-02-23T04:33:59.407Z,6.90
2019-02-23T04:36:28.883Z,6.80
2019-02-23T04:38:58.353Z,6.80
2019-02-23T04:41:27.772Z,6.80
2019-02-23T04:43:57.262Z,6.70
2019-02-23T04:46:26.693Z,6.70
2019-02-23T04:48:56.091Z,6.70
2019-02-23T04:51:25.559Z,6.70
2019-02-23T04:53:55.578Z,6.60
2019-02-23T04:56:25.055Z,6.60
2019-02-23T04:58:54.531Z,6.60
2019-02-23T05:01:23.991Z,6.60
2019-02-23T05:03:53.691Z,6.60
2019-02-23T05:06:23.144Z,6.50
2019-02-23T05:08:52.564Z,6.50
2019-02-23T05:11:21.991Z,6.50
2019-02-23T05:13:51.480Z,6.50
2019-02-23T05:16:20.874Z,6.50
2019-02-23T05:18:50.241Z,6.50
2019-02-23T05:21:26.515Z,6.40
2019-02-23T05:23:50.865Z,6.40
2019-02-23T05:26:20.303Z,6.40
2019-02-23T05:28:49.881Z,6.40
2019-02-23T05:31:22.084Z,6.40
2019-02-23T05:33:50.523Z,6.40
2019-02-23T05:36:20.090Z,6.40
2019-02-23T05:38:49.581Z,6.40
2019-02-23T05:41:19.100Z,6.40
2019-02-23T05:43:48.500Z,6.40
2019-02-23T05:46:17.943Z,6.40
2019-02-23T05:48:47.437Z,6.30
2019-02-23T05:51:17.304Z,6.30
2019-02-23T05:53:46.899Z,6.30
2019-02-23T05:56:16.482Z,6.30
2019-02-23T05:58:45.937Z,6.20
2019-02-23T06:01:15.422Z,6.20
2019-02-23T06:03:44.940Z,6.20
2019-02-23T06:06:14.419Z,6.20
2019-02-23T06:08:43.943Z,6.10
2019-02-23T06:11:13.417Z,6.10
2019-02-23T06:13:42.903Z,6.10
2019-02-23T06:16:12.395Z,6.00
2019-02-23T06:18:41.883Z,6.00
2019-02-23T06:21:11.442Z,6.00
2019-02-23T06:23:41.013Z,6.00
2019-02-23T06:26:10.414Z,5.90
2019-02-23T06:28:39.973Z,5.90
2019-02-23T06:31:09.383Z,5.90
2019-02-23T06:33:38.939Z,5.90
2019-02-23T06:36:08.428Z,5.90
2019-02-23T06:38:37.853Z,5.90
2019-02-23T06:41:07.223Z,5.90
2019-02-23T06:43:36.765Z,5.90
2019-02-23T06:46:06.221Z,5.80
2019-02-23T06:48:35.825Z,5.90
2019-02-23T06:51:05.263Z,5.80
2019-02-23T06:53:34.727Z,5.80
2019-02-23T06:56:04.193Z,5.80
2019-02-23T06:58:33.670Z,5.80
2019-02-23T07:01:03.187Z,5.90
2019-02-23T07:03:32.872Z,5.80
2019-02-23T07:06:02.209Z,5.80
2019-02-23T07:08:31.884Z,5.80
2019-02-23T07:11:01.543Z,5.90
2019-02-23T07:13:31.013Z,5.90
2019-02-23T07:16:00.524Z,5.90
2019-02-23T07:18:30.035Z,5.90
2019-02-23T07:20:59.569Z,6.00
2019-02-23T07:23:29.175Z,6.00
2019-02-23T07:25:59.166Z,6.00
2019-02-23T07:28:28.645Z,6.00
2019-02-23T07:30:58.070Z,6.00
2019-02-23T07:33:32.981Z,6.10
2019-02-23T07:35:58.619Z,6.10
2019-02-23T07:38:28.025Z,6.20
2019-02-23T07:40:57.481Z,6.20
2019-02-23T07:43:27.099Z,6.20
2019-02-23T07:45:56.576Z,6.30
2019-02-23T07:48:26.043Z,6.30
2019-02-23T07:50:55.592Z,6.40
2019-02-23T07:53:25.101Z,6.40
2019-02-23T07:55:54.629Z,6.50
2019-02-23T07:58:24.146Z,6.50
2019-02-23T08:00:53.624Z,6.50
2019-02-23T08:03:23.127Z,6.60
2019-02-23T08:05:52.646Z,6.60
2019-02-23T08:08:22.228Z,6.70
2019-02-23T08:10:52.248Z,6.70
2019-02-23T08:13:21.745Z,6.80
2019-02-23T08:15:51.334Z,6.80
2019-02-23T08:18:20.849Z,6.90
2019-02-23T08:20:50.302Z,6.90
2019-02-23T08:23:19.802Z,7.00
2019-02-23T08:25:49.177Z,7.00
2019-02-23T08:28:18.718Z,7.10
2019-02-23T08:30:48.209Z,7.10
2019-02-23T08:33:17.645Z,7.20
2019-02-23T08:35:47.182Z,7.20
2019-02-23T08:38:16.635Z,7.30
2019-02-23T08:40:46.091Z,7.40
2019-02-23T08:43:15.531Z,7.40
2019-02-23T08:45:45.053Z,7.50
2019-02-23T08:48:14.547Z,7.60
2019-02-23T08:50:44.129Z,7.70
2019-02-23T08:53:13.516Z,7.70
2019-02-23T08:55:43.029Z,7.80
2019-02-23T08:58:12.495Z,7.90
2019-02-23T09:00:41.975Z,7.90
2019-02-23T09:03:11.562Z,8.00
2019-02-23T09:05:40.998Z,8.10
2019-02-23T09:08:10.427Z,8.20
2019-02-23T09:10:39.922Z,8.20
2019-02-23T09:13:10.800Z,8.30
2019-02-23T09:15:40.267Z,8.40
2019-02-23T09:18:09.797Z,8.50
2019-02-23T09:20:39.371Z,8.50
2019-02-23T09:23:08.811Z,8.50
2019-02-23T09:25:38.321Z,8.60
2019-02-23T09:28:07.830Z,8.60
2019-02-23T09:30:37.249Z,8.70
2019-02-23T09:33:06.654Z,8.80
2019-02-23T09:35:36.114Z,8.80
2019-02-23T09:38:05.677Z,8.90
2019-02-23T09:40:35.240Z,8.90
2019-02-23T09:43:04.844Z,9.00
2019-02-23T09:45:34.473Z,9.00
2019-02-23T09:48:04.022Z,9.10
2019-02-23T09:50:33.567Z,9.20
2019-02-23T09:53:10.848Z,9.20
2019-02-23T09:55:35.000Z,9.30
2019-02-23T09:58:04.499Z,9.30
2019-02-23T10:00:34.048Z,9.40
2019-02-23T10:03:03.614Z,9.50
2019-02-23T10:05:33.058Z,9.50
2019-02-23T10:08:02.566Z,9.50
2019-02-23T10:10:32.134Z,9.60
2019-02-23T10:13:01.584Z,9.60
2019-02-23T10:15:31.154Z,9.70
2019-02-23T10:18:01.845Z,9.70
2019-02-23T10:20:31.363Z,9.80
2019-02-23T10:23:01.583Z,9.90
2019-02-23T10:25:31.333Z,9.90
2019-02-23T10:28:00.827Z,9.90
2019-02-23T10:30:30.285Z,10.00
2019-02-23T10:32:59.958Z,10.10
2019-02-23T10:35:29.802Z,10.10
2019-02-23T10:37:59.244Z,10.10
2019-02-23T10:40:28.640Z,10.20
2019-02-23T10:42:58.063Z,10.20
2019-02-23T10:45:27.526Z,10.30
2019-02-23T10:47:57.080Z,10.40
2019-02-23T10:50:26.554Z,10.40
2019-02-23T10:52:56.096Z,10.50
2019-02-23T10:55:25.563Z,10.60
2019-02-23T10:57:54.957Z,10.60
2019-02-23T11:00:24.770Z,10.70
2019-02-23T11:02:54.244Z,10.70
2019-02-23T11:05:23.797Z,10.70
2019-02-23T11:07:53.222Z,10.80
2019-02-23T11:10:23.499Z,10.90
2019-02-23T11:12:53.144Z,10.90
2019-02-23T11:15:22.752Z,10.90
2019-02-23T11:17:52.440Z,11.00
2019-02-23T11:20:23.319Z,11.10
2019-02-23T11:22:52.932Z,11.10
2019-02-23T11:25:23.265Z,11.10
2019-02-23T11:27:53.004Z,11.10
2019-02-23T11:30:22.630Z,11.20
2019-02-23T11:32:52.150Z,11.20
2019-02-23T11:35:21.612Z,11.20
2019-02-23T11:37:51.095Z,11.30
2019-02-23T11:40:20.604Z,11.40
2019-02-23T11:42:50.139Z,11.40
2019-02-23T11:45:19.756Z,11.40
2019-02-23T11:47:49.252Z,11.50
2019-02-23T11:50:19.647Z,11.60
2019-02-23T11:52:49.084Z,11.70
2019-02-23T11:55:18.575Z,11.70
2019-02-23T11:57:48.106Z,11.80
2019-02-23T12:00:17.628Z,11.90
2019-02-23T12:02:52.566Z,11.90
2019-02-23T12:05:18.336Z,11.90
2019-02-23T12:07:47.834Z,12.00
2019-02-23T12:10:17.490Z,12.10
2019-02-23T12:12:46.979Z,12.10
2019-02-23T12:15:16.601Z,12.20
2019-02-23T12:17:46.061Z,12.30
2019-02-23T12:20:15.781Z,12.30
2019-02-23T12:22:45.527Z,12.30
2019-02-23T12:25:16.218Z,12.30
2019-02-23T12:27:45.930Z,12.40
2019-02-23T12:30:15.649Z,12.40
2019-02-23T12:32:45.163Z,12.40
2019-02-23T12:35:14.670Z,12.40
2019-02-23T12:37:44.142Z,12.40
2019-02-23T12:40:14.300Z,12.40
2019-02-23T12:42:43.838Z,12.50
2019-02-23T12:45:13.829Z,12.50
2019-02-23T12:47:43.450Z,12.50
2019-02-23T12:50:13.600Z,12.50
2019-02-23T12:52:44.370Z,12.60
2019-02-23T12:55:13.810Z,12.70
2019-02-23T12:57:43.305Z,12.80
2019-02-23T13:00:15.282Z,12.80
2019-02-23T13:02:44.819Z,12.90
2019-02-23T13:05:14.309Z,12.90
2019-02-23T13:07:43.872Z,13.00
2019-02-23T13:10:13.884Z,13.00
2019-02-23T13:12:46.592Z,13.00
2019-02-23T13:15:19.092Z,13.00
2019-02-23T13:18:03.264Z,13.00
2019-02-23T13:20:38.600Z,13.10
2019-02-23T13:23:34.762Z,13.10
2019-02-23T13:26:15.831Z,13.10
2019-02-23T13:29:06.426Z,13.20
2019-02-23T13:31:47.960Z,13.20
2019-02-23T13:34:44.425Z,13.30
2019-02-23T13:37:25.700Z,13.30
2019-02-23T13:40:03.866Z,13.30
2019-02-23T13:42:45.744Z,13.30
2019-02-23T13:45:34.689Z,13.30
2019-02-23T13:48:21.212Z,13.30
2019-02-23T13:51:11.144Z,13.30
2019-02-23T13:53:43.718Z,13.30
2019-02-23T13:56:22.064Z,13.30
2019-02-23T13:59:05.302Z,13.30
2019-02-23T14:01:43.613Z,13.40
2019-02-23T14:04:34.147Z,13.40
2019-02-23T14:07:06.729Z,13.40
2019-02-23T14:09:39.298Z,13.50
2019-02-23T14:12:43.384Z,13.50
2019-02-23T14:15:48.661Z,13.50
2019-02-23T14:18:29.924Z,13.60
2019-02-23T14:23:52.502Z,13.70
2019-02-23T14:27:00.918Z,13.70
2019-02-23T14:29:53.132Z,13.80
2019-02-23T14:32:25.662Z,13.80
2019-02-23T14:35:31.116Z,13.80
2019-02-23T14:38:03.728Z,13.80
2019-02-23T14:41:03.433Z,13.90
2019-02-23T14:44:04.574Z,13.90
2019-02-23T14:46:58.924Z,13.90
2019-02-23T14:49:39.687Z,13.90
2019-02-23T14:52:37.550Z,13.90
2019-02-23T14:55:13.073Z,13.90
2019-02-23T14:58:04.255Z,13.90
2019-02-23T15:00:45.654Z,14.00
2019-02-23T15:03:24.004Z,14.00
2019-02-23T15:08:40.354Z,14.10
2019-02-23T15:11:27.801Z,14.10
2019-02-23T15:14:11.969Z,14.10
2019-02-23T15:16:53.345Z,14.10
2019-02-23T15:19:28.384Z,14.10
2019-02-23T15:22:09.923Z,14.10
2019-02-23T15:25:13.157Z,14.10
2019-02-23T15:27:56.457Z,14.10
2019-02-23T15:30:29.867Z,14.20
2019-02-23T15:33:20.384Z,14.20
2019-02-23T15:35:55.734Z,14.20
2019-02-23T15:38:43.362Z,14.20
2019-02-23T15:41:41.333Z,14.20
2019-02-23T15:47:22.315Z,14.20
2019-02-23T15:49:51.730Z,14.20
2019-02-23T15:52:21.313Z,14.20
2019-02-23T15:54:50.849Z,14.20
2019-02-23T15:57:29.969Z,14.30
2019-02-23T15:59:59.429Z,14.30
2019-02-23T16:02:29.059Z,14.30
2019-02-23T16:04:58.693Z,14.30
2019-02-23T16:07:28.247Z,14.30
2019-02-23T16:09:58.773Z,14.40
2019-02-23T16:12:28.389Z,14.40
2019-02-23T16:14:57.861Z,14.50
2019-02-23T16:17:27.531Z,14.50
2019-02-23T16:19:57.018Z,14.50
2019-02-23T16:22:26.589Z,14.50
2019-02-23T16:24:59.641Z,14.50
2019-02-23T16:27:29.163Z,14.40
2019-02-23T16:29:58.661Z,14.40
2019-02-23T16:32:28.155Z,14.40
2019-02-23T16:34:57.795Z,14.40
2019-02-23T16:37:27.272Z,14.50
2019-02-23T16:39:56.801Z,14.40
2019-02-23T16:42:26.285Z,14.50
2019-02-23T16:44:55.837Z,14.40
2019-02-23T16:47:25.285Z,14.40
2019-02-23T16:49:54.799Z,14.40
2019-02-23T16:55:05.333Z,14.30
2019-02-23T16:57:35.169Z,14.30
2019-02-23T17:00:06.715Z,14.20
2019-02-23T17:02:36.251Z,14.10
2019-02-23T17:05:07.461Z,14.10
2019-02-23T17:07:37.013Z,14.00
2019-02-23T17:10:07.543Z,13.90
2019-02-23T17:15:24.491Z,13.80
2019-02-23T17:17:53.867Z,13.70
2019-02-23T17:20:25.591Z,13.70
2019-02-23T17:22:54.637Z,13.60
2019-02-23T17:25:24.051Z,13.50
2019-02-23T17:27:53.447Z,13.50
2019-02-23T17:30:23.089Z,13.40
2019-02-23T17:32:52.653Z,13.30
2019-02-23T17:35:22.131Z,13.30
2019-02-23T17:37:51.658Z,13.20
2019-02-23T17:40:21.213Z,13.10
2019-02-23T17:42:50.666Z,13.00
2019-02-23T17:45:20.214Z,13.00
2019-02-23T17:47:49.775Z,12.90
2019-02-23T17:50:19.165Z,12.80
2019-02-23T17:52:48.783Z,12.70
2019-02-23T17:55:18.275Z,12.70
2019-02-23T17:57:47.876Z,12.60
2019-02-23T18:00:18.967Z,12.50
2019-02-23T18:02:48.476Z,12.50
2019-02-23T18:05:17.967Z,12.40
2019-02-23T18:07:47.497Z,12.40
2019-02-23T18:10:17.075Z,12.30
2019-02-23T18:12:46.561Z,12.20
2019-02-23T18:15:16.157Z,12.20
2019-02-23T18:17:45.563Z,12.10
2019-02-23T18:23:02.576Z,12.00
2019-02-23T18:25:32.481Z,11.90
2019-02-23T18:28:02.066Z,11.90
2019-02-23T18:30:31.626Z,11.80
2019-02-23T18:33:01.137Z,11.80
2019-02-23T18:35:30.602Z,11.70
2019-02-23T18:38:00.087Z,11.70
2019-02-23T18:40:29.584Z,11.60
2019-02-23T18:42:59.123Z,11.50
2019-02-23T18:45:28.653Z,11.50
2019-02-23T18:47:59.013Z,11.50
2019-02-23T18:50:28.469Z,11.40
2019-02-23T18:52:57.941Z,11.30
2019-02-23T18:55:28.367Z,11.30
2019-02-23T18:57:57.886Z,11.30
2019-02-23T19:00:27.327Z,11.20
2019-02-23T19:02:56.728Z,11.20
2019-02-23T19:05:27.147Z,11.10
2019-02-23T19:07:56.639Z,11.10
2019-02-23T19:10:26.093Z,11.00
2019-02-23T19:12:55.572Z,11.00
2019-02-23T19:15:25.037Z,10.90
2019-02-23T19:17:54.543Z,10.90
2019-02-23T19:20:23.975Z,10.80
2019-02-23T19:22:53.493Z,10.80
2019-02-23T19:25:22.985Z,10.70
2019-02-23T19:27:52.844Z,10.70
2019-02-23T19:30:22.335Z,10.60
2019-02-23T19:32:51.878Z,10.60
2019-02-23T19:35:21.390Z,10.50
2019-02-23T19:37:50.887Z,10.50
2019-02-23T19:40:20.452Z,10.50
2019-02-23T19:42:49.912Z,10.40
2019-02-23T19:45:19.308Z,10.40
2019-02-23T19:47:48.829Z,10.30
2019-02-23T19:50:21.899Z,10.20
2019-02-23T19:52:51.428Z,10.20
2019-02-23T19:55:20.892Z,10.10
2019-02-23T19:57:50.465Z,10.10
2019-02-23T20:00:19.993Z,10.00
2019-02-23T20:02:49.540Z,10.00
2019-02-23T20:05:19.008Z,9.90
2019-02-23T20:07:48.508Z,9.90
2019-02-23T20:10:17.996Z,9.90
2019-02-23T20:12:47.463Z,9.80
2019-02-23T20:15:16.950Z,9.80
2019-02-23T20:17:46.404Z,9.70
2019-02-23T20:20:15.929Z,9.70
2019-02-23T20:22:45.314Z,9.60
2019-02-23T20:25:14.824Z,9.60
2019-02-23T20:27:44.289Z,9.60
2019-02-23T20:30:13.758Z,9.60
2019-02-23T20:32:43.227Z,9.60
2019-02-23T20:35:12.708Z,9.50
2019-02-23T20:37:42.111Z,9.50
2019-02-23T20:40:11.523Z,9.50
2019-02-23T20:42:41.018Z,9.50
2019-02-23T20:45:10.530Z,9.40
2019-02-23T20:47:40.045Z,9.40
2019-02-23T20:50:10.866Z,9.40
2019-02-23T20:52:40.394Z,9.40
2019-02-23T20:55:09.980Z,9.30
2019-02-23T20:57:39.428Z,9.30
2019-02-23T21:00:12.526Z,9.30
2019-02-23T21:02:42.070Z,9.20
2019-02-23T21:05:14.598Z,9.10
2019-02-23T21:07:44.052Z,9.00
2019-02-23T21:10:13.498Z,9.00
2019-02-23T21:12:42.903Z,8.90
2019-02-23T21:15:12.405Z,8.80
2019-02-23T21:17:41.826Z,8.80
2019-02-23T21:20:11.724Z,8.70
2019-02-23T21:22:41.188Z,8.60
2019-02-23T21:25:10.638Z,8.60
2019-02-23T21:27:40.255Z,8.50
2019-02-23T21:30:10.928Z,8.50
2019-02-23T21:32:40.429Z,8.40
2019-02-23T21:35:09.841Z,8.30
2019-02-23T21:37:39.311Z,8.30
2019-02-23T21:40:09.847Z,8.30
2019-02-23T21:42:39.330Z,8.20
2019-02-23T21:45:09.505Z,8.20
2019-02-23T21:47:38.917Z,8.10
2019-02-23T21:50:09.973Z,8.10
2019-02-23T21:52:39.452Z,8.10
2019-02-23T21:55:08.986Z,8.00
2019-02-23T21:57:38.498Z,8.00
2019-02-23T22:00:09.644Z,7.90
2019-02-23T22:02:39.224Z,8.00
2019-02-23T22:05:12.364Z,7.90
2019-02-23T22:07:39.737Z,7.90
2019-02-23T22:10:09.654Z,7.80
2019-02-23T22:12:39.158Z,7.80
2019-02-23T22:15:08.774Z,7.80
2019-02-23T22:17:38.170Z,7.70
2019-02-23T22:20:08.158Z,7.80
2019-02-23T22:22:37.731Z,7.70
2019-02-23T22:25:08.232Z,7.70
2019-02-23T22:27:37.686Z,7.60
2019-02-23T22:30:08.389Z,7.60
2019-02-23T22:32:38.186Z,7.60
2019-02-23T22:35:07.734Z,7.50
2019-02-23T22:37:37.244Z,7.50
2019-02-23T22:40:07.320Z,7.50
2019-02-23T22:42:36.790Z,7.40
2019-02-23T22:45:07.910Z,7.40
2019-02-23T22:47:37.488Z,7.30
2019-02-23T22:50:08.558Z,7.30
2019-02-23T22:52:38.070Z,7.30
2019-02-23T22:55:07.500Z,7.20
2019-02-23T22:57:40.475Z,7.20
2019-02-23T23:00:14.990Z,7.10
2019-02-23T23:02:44.526Z,7.10
2019-02-23T23:05:14.140Z,7.10
2019-02-23T23:07:43.690Z,7.00
2019-02-23T23:10:13.130Z,7.00
2019-02-23T23:12:42.680Z,7.00
2019-02-23T23:15:12.338Z,6.90
2019-02-23T23:17:41.893Z,6.90
2019-02-23T23:20:11.375Z,6.90
2019-02-23T23:22:40.818Z,6.90
2019-02-23T23:25:10.372Z,6.80
2019-02-23T23:27:39.790Z,6.80
2019-02-23T23:30:09.612Z,6.80
2019-02-23T23:32:39.097Z,6.70
2019-02-23T23:35:10.350Z,6.70
2019-02-23T23:37:39.905Z,6.70
2019-02-23T23:40:09.372Z,6.60
2019-02-23T23:42:40.569Z,6.60
2019-02-23T23:45:10.199Z,6.60
2019-02-23T23:47:39.657Z,6.60
2019-02-23T23:50:09.368Z,6.50
2019-02-23T23:52:38.829Z,6.50
2019-02-23T23:55:08.354Z,6.50
2019-02-23T23:57:37.814Z,6.50
